sensor_id;sensor_type;location;lat;lon;timestamp;pressure;altitude;pressure_sealevel;temperature
11792;BMP180;5953;52.372;9.918;2024-03-08T00:00:12;101438.00;;;7.20
11792;BMP180;5953;52.372;9.918;2024-03-08T00:02:44;101433.00;;;7.20
11792;BMP180;5953;52.372;9.918;2024-03-08T00:05:13;101444.00;;;7.20
11792;BMP180;5953;52.372;9.918;2024-03-08T00:07:42;101442.00;;;7.10
11792;BMP180;5953;52.372;9.918;2024-03-08T00:10:12;101431.00;;;7.10
11792;BMP180;5953;52.372;9.918;2024-03-08T00:12:43;101439.00;;;7.10
11792;BMP180;5953;52.372;9.918;2024-03-08T00:15:13;101428.00;;;7.00
11792;BMP180;5953;52.372;9.918;2024-03-08T00:17:44;101411.00;;;7.10
11792;BMP180;5953;52.372;9.918;2024-03-08T00:20:13;101417.00;;;7.10
11792;BMP180;5953;52.372;9.918;2024-03-08T00:22:41;101423.00;;;7.00
11792;BMP180;5953;52.372;9.918;2024-03-08T00:25:09;101425.00;;;7.00
11792;BMP180;5953;52.372;9.918;2024-03-08T00:27:38;101430.00;;;7.00
11792;BMP180;5953;52.372;9.918;2024-03-08T00:30:07;101428.00;;;7.10
11792;BMP180;5953;52.372;9.918;2024-03-08T00:32:35;101433.00;;;7.10
11792;BMP180;5953;52.372;9.918;2024-03-08T00:35:06;101424.00;;;7.00
11792;BMP180;5953;52.372;9.918;2024-03-08T00:37:34;101423.00;;;7.00
11792;BMP180;5953;52.372;9.918;2024-03-08T00:40:03;101432.00;;;6.90
11792;BMP180;5953;52.372;9.918;2024-03-08T00:42:36;101424.00;;;6.90
11792;BMP180;5953;52.372;9.918;2024-03-08T00:45:05;101421.00;;;6.90
11792;BMP180;5953;52.372;9.918;2024-03-08T00:47:33;101419.00;;;6.80
11792;BMP180;5953;52.372;9.918;2024-03-08T00:50:01;101412.00;;;6.90
11792;BMP180;5953;52.372;9.918;2024-03-08T00:52:31;101413.00;;;6.90
11792;BMP180;5953;52.372;9.918;2024-03-08T00:55:01;101407.00;;;6.90
11792;BMP180;5953;52.372;9.918;2024-03-08T00:57:29;101405.00;;;6.90
11792;BMP180;5953;52.372;9.918;2024-03-08T00:59:57;101405.00;;;6.90
11792;BMP180;5953;52.372;9.918;2024-03-08T01:02:25;101412.00;;;7.00
11792;BMP180;5953;52.372;9.918;2024-03-08T01:04:53;101408.00;;;7.00
11792;BMP180;5953;52.372;9.918;2024-03-08T01:07:20;101408.00;;;7.00
11792;BMP180;5953;52.372;9.918;2024-03-08T01:09:50;101397.00;;;7.00
11792;BMP180;5953;52.372;9.918;2024-03-08T01:12:17;101384.00;;;7.00
11792;BMP180;5953;52.372;9.918;2024-03-08T01:14:46;101400.00;;;7.00
11792;BMP180;5953;52.372;9.918;2024-03-08T01:17:14;101397.00;;;6.90
11792;BMP180;5953;52.372;9.918;2024-03-08T01:19:42;101385.00;;;7.00
11792;BMP180;5953;52.372;9.918;2024-03-08T01:22:11;101382.00;;;6.90
11792;BMP180;5953;52.372;9.918;2024-03-08T01:24:39;101376.00;;;7.00
11792;BMP180;5953;52.372;9.918;2024-03-08T01:27:08;101378.00;;;7.00
11792;BMP180;5953;52.372;9.918;2024-03-08T01:29:36;101380.00;;;6.90
11792;BMP180;5953;52.372;9.918;2024-03-08T01:32:04;101383.00;;;7.00
11792;BMP180;5953;52.372;9.918;2024-03-08T01:34:32;101378.00;;;6.90
11792;BMP180;5953;52.372;9.918;2024-03-08T01:37:00;101374.00;;;6.90
11792;BMP180;5953;52.372;9.918;2024-03-08T01:39:28;101368.00;;;6.90
11792;BMP180;5953;52.372;9.918;2024-03-08T01:41:56;101364.00;;;6.90
11792;BMP180;5953;52.372;9.918;2024-03-08T01:44:25;101356.00;;;6.90
11792;BMP180;5953;52.372;9.918;2024-03-08T01:46:53;101361.00;;;6.80
11792;BMP180;5953;52.372;9.918;2024-03-08T01:49:21;101361.00;;;6.90
11792;BMP180;5953;52.372;9.918;2024-03-08T01:51:50;101340.00;;;6.70
11792;BMP180;5953;52.372;9.918;2024-03-08T01:54:19;101344.00;;;6.70
11792;BMP180;5953;52.372;9.918;2024-03-08T01:56:47;101340.00;;;6.80
11792;BMP180;5953;52.372;9.918;2024-03-08T01:59:16;101339.00;;;6.70
11792;BMP180;5953;52.372;9.918;2024-03-08T02:01:45;101336.00;;;6.70
11792;BMP180;5953;52.372;9.918;2024-03-08T02:04:13;101328.00;;;6.80
11792;BMP180;5953;52.372;9.918;2024-03-08T02:06:41;101331.00;;;6.80
11792;BMP180;5953;52.372;9.918;2024-03-08T02:09:08;101336.00;;;6.80
11792;BMP180;5953;52.372;9.918;2024-03-08T02:11:37;101337.00;;;6.90
11792;BMP180;5953;52.372;9.918;2024-03-08T02:14:04;101321.00;;;6.90
11792;BMP180;5953;52.372;9.918;2024-03-08T02:16:33;101331.00;;;6.90
11792;BMP180;5953;52.372;9.918;2024-03-08T02:19:02;101312.00;;;6.90
11792;BMP180;5953;52.372;9.918;2024-03-08T02:21:32;101316.00;;;6.90
11792;BMP180;5953;52.372;9.918;2024-03-08T02:24:00;101310.00;;;6.70
11792;BMP180;5953;52.372;9.918;2024-03-08T02:26:28;101315.00;;;6.80
11792;BMP180;5953;52.372;9.918;2024-03-08T02:28:56;101316.00;;;6.70
11792;BMP180;5953;52.372;9.918;2024-03-08T02:31:24;101301.00;;;6.70
11792;BMP180;5953;52.372;9.918;2024-03-08T02:33:51;101308.00;;;6.60
11792;BMP180;5953;52.372;9.918;2024-03-08T02:36:19;101310.00;;;6.50
11792;BMP180;5953;52.372;9.918;2024-03-08T02:38:49;101296.00;;;6.30
11792;BMP180;5953;52.372;9.918;2024-03-08T02:41:17;101298.00;;;6.50
11792;BMP180;5953;52.372;9.918;2024-03-08T02:43:45;101293.00;;;6.40
11792;BMP180;5953;52.372;9.918;2024-03-08T02:46:12;101295.00;;;6.40
11792;BMP180;5953;52.372;9.918;2024-03-08T02:48:41;101293.00;;;6.30
11792;BMP180;5953;52.372;9.918;2024-03-08T02:51:09;101283.00;;;6.30
11792;BMP180;5953;52.372;9.918;2024-03-08T02:53:38;101292.00;;;6.20
11792;BMP180;5953;52.372;9.918;2024-03-08T02:56:07;101284.00;;;6.10
11792;BMP180;5953;52.372;9.918;2024-03-08T02:58:39;101275.00;;;6.00
11792;BMP180;5953;52.372;9.918;2024-03-08T03:01:07;101278.00;;;6.00
11792;BMP180;5953;52.372;9.918;2024-03-08T03:03:34;101273.00;;;5.90
11792;BMP180;5953;52.372;9.918;2024-03-08T03:06:03;101272.00;;;5.80
11792;BMP180;5953;52.372;9.918;2024-03-08T03:08:33;101274.00;;;5.80
11792;BMP180;5953;52.372;9.918;2024-03-08T03:11:01;101269.00;;;5.90
11792;BMP180;5953;52.372;9.918;2024-03-08T03:13:30;101258.00;;;5.80
11792;BMP180;5953;52.372;9.918;2024-03-08T03:15:58;101260.00;;;5.80
11792;BMP180;5953;52.372;9.918;2024-03-08T03:18:26;101261.00;;;5.90
11792;BMP180;5953;52.372;9.918;2024-03-08T03:20:54;101254.00;;;5.80
11792;BMP180;5953;52.372;9.918;2024-03-08T03:23:22;101237.00;;;5.70
11792;BMP180;5953;52.372;9.918;2024-03-08T03:25:50;101258.00;;;5.50
11792;BMP180;5953;52.372;9.918;2024-03-08T03:28:18;101241.00;;;5.50
11792;BMP180;5953;52.372;9.918;2024-03-08T03:30:49;101240.00;;;5.40
11792;BMP180;5953;52.372;9.918;2024-03-08T03:33:17;101244.00;;;5.50
11792;BMP180;5953;52.372;9.918;2024-03-08T03:35:45;101240.00;;;5.40
11792;BMP180;5953;52.372;9.918;2024-03-08T03:38:13;101248.00;;;5.20
11792;BMP180;5953;52.372;9.918;2024-03-08T03:40:41;101249.00;;;5.10
11792;BMP180;5953;52.372;9.918;2024-03-08T03:43:11;101242.00;;;5.00
11792;BMP180;5953;52.372;9.918;2024-03-08T03:45:39;101256.00;;;5.20
11792;BMP180;5953;52.372;9.918;2024-03-08T03:48:09;101250.00;;;5.10
11792;BMP180;5953;52.372;9.918;2024-03-08T03:50:38;101251.00;;;5.10
11792;BMP180;5953;52.372;9.918;2024-03-08T03:53:07;101245.00;;;5.20
11792;BMP180;5953;52.372;9.918;2024-03-08T03:55:37;101240.00;;;5.20
11792;BMP180;5953;52.372;9.918;2024-03-08T03:58:07;101249.00;;;5.20
11792;BMP180;5953;52.372;9.918;2024-03-08T04:00:36;101248.00;;;5.40
11792;BMP180;5953;52.372;9.918;2024-03-08T04:03:04;101247.00;;;5.30
11792;BMP180;5953;52.372;9.918;2024-03-08T04:05:34;101235.00;;;5.30
11792;BMP180;5953;52.372;9.918;2024-03-08T04:08:02;101237.00;;;5.40
11792;BMP180;5953;52.372;9.918;2024-03-08T04:10:30;101247.00;;;5.40
11792;BMP180;5953;52.372;9.918;2024-03-08T04:12:58;101231.00;;;5.30
11792;BMP180;5953;52.372;9.918;2024-03-08T04:15:26;101243.00;;;5.20
11792;BMP180;5953;52.372;9.918;2024-03-08T04:17:53;101207.00;;;5.20
11792;BMP180;5953;52.372;9.918;2024-03-08T04:20:21;101230.00;;;5.20
11792;BMP180;5953;52.372;9.918;2024-03-08T04:22:51;101233.00;;;5.20
11792;BMP180;5953;52.372;9.918;2024-03-08T04:25:18;101235.00;;;5.00
11792;BMP180;5953;52.372;9.918;2024-03-08T04:27:46;101229.00;;;5.00
11792;BMP180;5953;52.372;9.918;2024-03-08T04:30:15;101240.00;;;5.00
11792;BMP180;5953;52.372;9.918;2024-03-08T04:32:44;101239.00;;;4.90
11792;BMP180;5953;52.372;9.918;2024-03-08T04:35:12;101242.00;;;5.00
11792;BMP180;5953;52.372;9.918;2024-03-08T04:37:41;101232.00;;;4.90
11792;BMP180;5953;52.372;9.918;2024-03-08T04:40:11;101232.00;;;5.00
11792;BMP180;5953;52.372;9.918;2024-03-08T04:42:39;101235.00;;;5.00
11792;BMP180;5953;52.372;9.918;2024-03-08T04:45:08;101228.00;;;4.80
11792;BMP180;5953;52.372;9.918;2024-03-08T04:47:37;101218.00;;;5.00
11792;BMP180;5953;52.372;9.918;2024-03-08T04:50:06;101220.00;;;5.00
11792;BMP180;5953;52.372;9.918;2024-03-08T04:52:35;101211.00;;;5.10
11792;BMP180;5953;52.372;9.918;2024-03-08T04:55:04;101224.00;;;5.10
11792;BMP180;5953;52.372;9.918;2024-03-08T04:57:33;101224.00;;;5.00
11792;BMP180;5953;52.372;9.918;2024-03-08T05:00:01;101217.00;;;4.80
11792;BMP180;5953;52.372;9.918;2024-03-08T05:02:31;101222.00;;;4.50
11792;BMP180;5953;52.372;9.918;2024-03-08T05:04:59;101211.00;;;4.70
11792;BMP180;5953;52.372;9.918;2024-03-08T05:07:27;101227.00;;;4.60
11792;BMP180;5953;52.372;9.918;2024-03-08T05:09:55;101229.00;;;4.80
11792;BMP180;5953;52.372;9.918;2024-03-08T05:12:23;101211.00;;;4.60
11792;BMP180;5953;52.372;9.918;2024-03-08T05:14:52;101215.00;;;4.50
11792;BMP180;5953;52.372;9.918;2024-03-08T05:17:20;101219.00;;;4.30
11792;BMP180;5953;52.372;9.918;2024-03-08T05:19:50;101217.00;;;4.10
11792;BMP180;5953;52.372;9.918;2024-03-08T05:22:18;101215.00;;;4.30
11792;BMP180;5953;52.372;9.918;2024-03-08T05:24:46;101206.00;;;4.30
11792;BMP180;5953;52.372;9.918;2024-03-08T05:27:14;101221.00;;;4.10
11792;BMP180;5953;52.372;9.918;2024-03-08T05:29:43;101215.00;;;4.30
11792;BMP180;5953;52.372;9.918;2024-03-08T05:32:12;101206.00;;;4.10
11792;BMP180;5953;52.372;9.918;2024-03-08T05:34:40;101221.00;;;4.10
11792;BMP180;5953;52.372;9.918;2024-03-08T05:37:09;101218.00;;;4.10
11792;BMP180;5953;52.372;9.918;2024-03-08T05:39:38;101218.00;;;3.90
11792;BMP180;5953;52.372;9.918;2024-03-08T05:42:07;101219.00;;;4.00
11792;BMP180;5953;52.372;9.918;2024-03-08T05:44:36;101210.00;;;3.90
11792;BMP180;5953;52.372;9.918;2024-03-08T05:47:03;101214.00;;;3.90
11792;BMP180;5953;52.372;9.918;2024-03-08T05:49:34;101224.00;;;3.90
11792;BMP180;5953;52.372;9.918;2024-03-08T05:52:02;101212.00;;;4.00
11792;BMP180;5953;52.372;9.918;2024-03-08T05:54:31;101217.00;;;4.00
11792;BMP180;5953;52.372;9.918;2024-03-08T05:56:59;101213.00;;;3.90
11792;BMP180;5953;52.372;9.918;2024-03-08T05:59:27;101206.00;;;4.00
11792;BMP180;5953;52.372;9.918;2024-03-08T06:01:55;101215.00;;;4.00
11792;BMP180;5953;52.372;9.918;2024-03-08T06:04:24;101209.00;;;3.80
11792;BMP180;5953;52.372;9.918;2024-03-08T06:06:53;101215.00;;;3.80
11792;BMP180;5953;52.372;9.918;2024-03-08T06:09:22;101220.00;;;3.80
11792;BMP180;5953;52.372;9.918;2024-03-08T06:11:51;101215.00;;;3.90
11792;BMP180;5953;52.372;9.918;2024-03-08T06:14:20;101214.00;;;3.90
11792;BMP180;5953;52.372;9.918;2024-03-08T06:16:49;101213.00;;;3.80
11792;BMP180;5953;52.372;9.918;2024-03-08T06:19:17;101218.00;;;4.00
11792;BMP180;5953;52.372;9.918;2024-03-08T06:21:45;101213.00;;;4.00
11792;BMP180;5953;52.372;9.918;2024-03-08T06:24:14;101205.00;;;4.10
11792;BMP180;5953;52.372;9.918;2024-03-08T06:26:42;101210.00;;;4.10
11792;BMP180;5953;52.372;9.918;2024-03-08T06:29:10;101215.00;;;4.20
11792;BMP180;5953;52.372;9.918;2024-03-08T06:31:39;101206.00;;;4.20
11792;BMP180;5953;52.372;9.918;2024-03-08T06:34:07;101209.00;;;4.20
11792;BMP180;5953;52.372;9.918;2024-03-08T06:36:36;101212.00;;;4.10
11792;BMP180;5953;52.372;9.918;2024-03-08T06:39:04;101206.00;;;4.20
11792;BMP180;5953;52.372;9.918;2024-03-08T06:41:38;101194.00;;;4.20
11792;BMP180;5953;52.372;9.918;2024-03-08T06:44:06;101204.00;;;4.50
11792;BMP180;5953;52.372;9.918;2024-03-08T06:46:35;101207.00;;;4.30
11792;BMP180;5953;52.372;9.918;2024-03-08T06:49:04;101212.00;;;4.50
11792;BMP180;5953;52.372;9.918;2024-03-08T06:51:34;101206.00;;;4.70
11792;BMP180;5953;52.372;9.918;2024-03-08T06:54:02;101209.00;;;4.70
11792;BMP180;5953;52.372;9.918;2024-03-08T06:56:35;101205.00;;;4.70
11792;BMP180;5953;52.372;9.918;2024-03-08T06:59:04;101206.00;;;4.80
11792;BMP180;5953;52.372;9.918;2024-03-08T07:01:33;101214.00;;;4.80
11792;BMP180;5953;52.372;9.918;2024-03-08T07:04:03;101203.00;;;4.60
11792;BMP180;5953;52.372;9.918;2024-03-08T07:06:32;101199.00;;;4.70
11792;BMP180;5953;52.372;9.918;2024-03-08T07:09:00;101208.00;;;4.70
11792;BMP180;5953;52.372;9.918;2024-03-08T07:11:29;101207.00;;;5.00
11792;BMP180;5953;52.372;9.918;2024-03-08T07:13:56;101210.00;;;5.10
11792;BMP180;5953;52.372;9.918;2024-03-08T07:16:26;101196.00;;;5.20
11792;BMP180;5953;52.372;9.918;2024-03-08T07:18:55;101192.00;;;5.50
11792;BMP180;5953;52.372;9.918;2024-03-08T07:21:25;101212.00;;;5.40
11792;BMP180;5953;52.372;9.918;2024-03-08T07:23:53;101193.00;;;5.50
11792;BMP180;5953;52.372;9.918;2024-03-08T07:26:36;101200.00;;;5.70
11792;BMP180;5953;52.372;9.918;2024-03-08T07:29:05;101178.00;;;5.60
11792;BMP180;5953;52.372;9.918;2024-03-08T07:31:35;101175.00;;;5.70
11792;BMP180;5953;52.372;9.918;2024-03-08T07:34:16;101206.00;;;5.90
11792;BMP180;5953;52.372;9.918;2024-03-08T07:36:44;101195.00;;;5.90
11792;BMP180;5953;52.372;9.918;2024-03-08T07:39:12;101194.00;;;6.10
11792;BMP180;5953;52.372;9.918;2024-03-08T07:41:40;101185.00;;;6.00
11792;BMP180;5953;52.372;9.918;2024-03-08T07:44:08;101180.00;;;6.10
11792;BMP180;5953;52.372;9.918;2024-03-08T07:46:37;101176.00;;;6.20
11792;BMP180;5953;52.372;9.918;2024-03-08T07:49:05;101184.00;;;6.10
11792;BMP180;5953;52.372;9.918;2024-03-08T07:51:33;101177.00;;;6.30
11792;BMP180;5953;52.372;9.918;2024-03-08T07:54:01;101178.00;;;6.50
11792;BMP180;5953;52.372;9.918;2024-03-08T07:56:31;101175.00;;;6.50
11792;BMP180;5953;52.372;9.918;2024-03-08T07:58:58;101182.00;;;6.50
11792;BMP180;5953;52.372;9.918;2024-03-08T08:01:26;101174.00;;;6.70
11792;BMP180;5953;52.372;9.918;2024-03-08T08:03:56;101175.00;;;6.30
11792;BMP180;5953;52.372;9.918;2024-03-08T08:06:25;101172.00;;;6.50
11792;BMP180;5953;52.372;9.918;2024-03-08T08:08:53;101162.00;;;6.70
11792;BMP180;5953;52.372;9.918;2024-03-08T08:11:22;101153.00;;;6.50
11792;BMP180;5953;52.372;9.918;2024-03-08T08:13:50;101168.00;;;6.80
11792;BMP180;5953;52.372;9.918;2024-03-08T08:16:17;101165.00;;;6.60
11792;BMP180;5953;52.372;9.918;2024-03-08T08:18:46;101161.00;;;6.70
11792;BMP180;5953;52.372;9.918;2024-03-08T08:21:16;101156.00;;;6.50
11792;BMP180;5953;52.372;9.918;2024-03-08T08:23:44;101164.00;;;6.80
11792;BMP180;5953;52.372;9.918;2024-03-08T08:26:12;101145.00;;;6.70
11792;BMP180;5953;52.372;9.918;2024-03-08T08:28:40;101165.00;;;7.10
11792;BMP180;5953;52.372;9.918;2024-03-08T08:31:10;101157.00;;;7.00
11792;BMP180;5953;52.372;9.918;2024-03-08T08:33:37;101157.00;;;7.20
11792;BMP180;5953;52.372;9.918;2024-03-08T08:36:07;101147.00;;;7.20
11792;BMP180;5953;52.372;9.918;2024-03-08T08:38:36;101152.00;;;7.20
11792;BMP180;5953;52.372;9.918;2024-03-08T08:41:04;101153.00;;;7.40
11792;BMP180;5953;52.372;9.918;2024-03-08T08:43:32;101152.00;;;7.20
11792;BMP180;5953;52.372;9.918;2024-03-08T08:46:03;101146.00;;;7.40
11792;BMP180;5953;52.372;9.918;2024-03-08T08:48:31;101142.00;;;7.70
11792;BMP180;5953;52.372;9.918;2024-03-08T08:50:59;101140.00;;;7.70
11792;BMP180;5953;52.372;9.918;2024-03-08T08:53:26;101148.00;;;7.90
11792;BMP180;5953;52.372;9.918;2024-03-08T08:55:56;101129.00;;;8.10
11792;BMP180;5953;52.372;9.918;2024-03-08T08:58:23;101141.00;;;8.00
11792;BMP180;5953;52.372;9.918;2024-03-08T09:00:52;101146.00;;;8.30
11792;BMP180;5953;52.372;9.918;2024-03-08T09:03:20;101134.00;;;8.40
11792;BMP180;5953;52.372;9.918;2024-03-08T09:05:49;101134.00;;;8.50
11792;BMP180;5953;52.372;9.918;2024-03-08T09:08:17;101133.00;;;8.60
11792;BMP180;5953;52.372;9.918;2024-03-08T09:10:46;101122.00;;;8.60
11792;BMP180;5953;52.372;9.918;2024-03-08T09:13:19;101127.00;;;8.70
11792;BMP180;5953;52.372;9.918;2024-03-08T09:15:57;101120.00;;;8.70
11792;BMP180;5953;52.372;9.918;2024-03-08T09:18:25;101115.00;;;8.90
11792;BMP180;5953;52.372;9.918;2024-03-08T09:20:53;101112.00;;;8.70
11792;BMP180;5953;52.372;9.918;2024-03-08T09:23:21;101114.00;;;8.90
11792;BMP180;5953;52.372;9.918;2024-03-08T09:25:49;101109.00;;;9.10
11792;BMP180;5953;52.372;9.918;2024-03-08T09:28:16;101065.00;;;8.90
11792;BMP180;5953;52.372;9.918;2024-03-08T09:30:46;101101.00;;;9.20
11792;BMP180;5953;52.372;9.918;2024-03-08T09:33:25;101100.00;;;9.20
11792;BMP180;5953;52.372;9.918;2024-03-08T09:35:53;101095.00;;;9.20
11792;BMP180;5953;52.372;9.918;2024-03-08T09:38:25;101076.00;;;9.30
11792;BMP180;5953;52.372;9.918;2024-03-08T09:40:53;101078.00;;;9.60
11792;BMP180;5953;52.372;9.918;2024-03-08T09:43:23;101076.00;;;9.10
11792;BMP180;5953;52.372;9.918;2024-03-08T09:45:53;101055.00;;;9.40
11792;BMP180;5953;52.372;9.918;2024-03-08T09:48:21;101054.00;;;9.60
11792;BMP180;5953;52.372;9.918;2024-03-08T09:50:49;101059.00;;;9.60
11792;BMP180;5953;52.372;9.918;2024-03-08T09:53:17;101054.00;;;9.70
11792;BMP180;5953;52.372;9.918;2024-03-08T09:55:45;101056.00;;;9.90
11792;BMP180;5953;52.372;9.918;2024-03-08T09:58:16;101052.00;;;9.70
11792;BMP180;5953;52.372;9.918;2024-03-08T10:00:58;101045.00;;;10.20
11792;BMP180;5953;52.372;9.918;2024-03-08T10:03:29;101032.00;;;10.00
11792;BMP180;5953;52.372;9.918;2024-03-08T10:05:57;101054.00;;;10.10
11792;BMP180;5953;52.372;9.918;2024-03-08T10:08:27;101038.00;;;10.10
11792;BMP180;5953;52.372;9.918;2024-03-08T10:10:56;101039.00;;;9.90
11792;BMP180;5953;52.372;9.918;2024-03-08T10:13:25;101036.00;;;9.90
11792;BMP180;5953;52.372;9.918;2024-03-08T10:15:54;101032.00;;;9.80
11792;BMP180;5953;52.372;9.918;2024-03-08T10:18:23;101033.00;;;10.00
11792;BMP180;5953;52.372;9.918;2024-03-08T10:21:02;101028.00;;;9.80
11792;BMP180;5953;52.372;9.918;2024-03-08T10:23:31;101029.00;;;9.80
11792;BMP180;5953;52.372;9.918;2024-03-08T10:26:10;101024.00;;;10.00
11792;BMP180;5953;52.372;9.918;2024-03-08T10:28:38;101020.00;;;10.00
11792;BMP180;5953;52.372;9.918;2024-03-08T10:31:05;101019.00;;;10.30
11792;BMP180;5953;52.372;9.918;2024-03-08T10:33:35;101003.00;;;10.70
11792;BMP180;5953;52.372;9.918;2024-03-08T10:36:06;101006.00;;;10.40
11792;BMP180;5953;52.372;9.918;2024-03-08T10:38:36;101012.00;;;10.80
11792;BMP180;5953;52.372;9.918;2024-03-08T10:41:06;101012.00;;;11.10
11792;BMP180;5953;52.372;9.918;2024-03-08T10:43:44;100998.00;;;11.10
11792;BMP180;5953;52.372;9.918;2024-03-08T10:46:20;101005.00;;;10.90
11792;BMP180;5953;52.372;9.918;2024-03-08T10:48:52;101009.00;;;10.80
11792;BMP180;5953;52.372;9.918;2024-03-08T10:51:20;100997.00;;;10.80
11792;BMP180;5953;52.372;9.918;2024-03-08T10:53:48;101000.00;;;11.00
11792;BMP180;5953;52.372;9.918;2024-03-08T10:56:17;101002.00;;;10.80
11792;BMP180;5953;52.372;9.918;2024-03-08T10:58:45;100992.00;;;10.60
11792;BMP180;5953;52.372;9.918;2024-03-08T11:01:14;101000.00;;;10.90
11792;BMP180;5953;52.372;9.918;2024-03-08T11:03:45;100996.00;;;11.10
11792;BMP180;5953;52.372;9.918;2024-03-08T11:06:17;100996.00;;;11.10
11792;BMP180;5953;52.372;9.918;2024-03-08T11:08:49;100993.00;;;10.80
11792;BMP180;5953;52.372;9.918;2024-03-08T11:11:25;100985.00;;;11.10
11792;BMP180;5953;52.372;9.918;2024-03-08T11:14:01;100989.00;;;11.10
11792;BMP180;5953;52.372;9.918;2024-03-08T11:16:38;100978.00;;;11.20
11792;BMP180;5953;52.372;9.918;2024-03-08T11:19:23;100968.00;;;11.20
11792;BMP180;5953;52.372;9.918;2024-03-08T11:22:01;100966.00;;;11.30
11792;BMP180;5953;52.372;9.918;2024-03-08T11:24:37;100958.00;;;11.30
11792;BMP180;5953;52.372;9.918;2024-03-08T11:27:07;100954.00;;;11.00
11792;BMP180;5953;52.372;9.918;2024-03-08T11:29:36;100958.00;;;11.40
11792;BMP180;5953;52.372;9.918;2024-03-08T11:32:10;100950.00;;;11.40
11792;BMP180;5953;52.372;9.918;2024-03-08T11:34:40;100946.00;;;11.60
11792;BMP180;5953;52.372;9.918;2024-03-08T11:37:15;100940.00;;;11.40
11792;BMP180;5953;52.372;9.918;2024-03-08T11:39:48;100931.00;;;11.30
11792;BMP180;5953;52.372;9.918;2024-03-08T11:42:16;100925.00;;;11.30
11792;BMP180;5953;52.372;9.918;2024-03-08T11:44:44;100928.00;;;11.60
11792;BMP180;5953;52.372;9.918;2024-03-08T11:47:12;100920.00;;;11.70
11792;BMP180;5953;52.372;9.918;2024-03-08T11:49:41;100902.00;;;11.40
11792;BMP180;5953;52.372;9.918;2024-03-08T11:52:11;100915.00;;;11.80
11792;BMP180;5953;52.372;9.918;2024-03-08T11:54:41;100909.00;;;11.70
11792;BMP180;5953;52.372;9.918;2024-03-08T11:57:10;100911.00;;;11.80
11792;BMP180;5953;52.372;9.918;2024-03-08T11:59:38;100898.00;;;11.70
11792;BMP180;5953;52.372;9.918;2024-03-08T12:02:06;100901.00;;;11.70
11792;BMP180;5953;52.372;9.918;2024-03-08T12:04:37;100908.00;;;11.70
11792;BMP180;5953;52.372;9.918;2024-03-08T12:07:05;100894.00;;;11.60
11792;BMP180;5953;52.372;9.918;2024-03-08T12:09:36;100885.00;;;11.80
11792;BMP180;5953;52.372;9.918;2024-03-08T12:12:06;100865.00;;;11.70
11792;BMP180;5953;52.372;9.918;2024-03-08T12:14:35;100875.00;;;11.80
11792;BMP180;5953;52.372;9.918;2024-03-08T12:17:04;100864.00;;;11.80
11792;BMP180;5953;52.372;9.918;2024-03-08T12:19:32;100859.00;;;12.00
11792;BMP180;5953;52.372;9.918;2024-03-08T12:22:07;100861.00;;;11.90
11792;BMP180;5953;52.372;9.918;2024-03-08T12:24:36;100863.00;;;12.20
11792;BMP180;5953;52.372;9.918;2024-03-08T12:27:19;100849.00;;;12.00
11792;BMP180;5953;52.372;9.918;2024-03-08T12:29:47;100837.00;;;12.00
11792;BMP180;5953;52.372;9.918;2024-03-08T12:32:15;100832.00;;;12.00
11792;BMP180;5953;52.372;9.918;2024-03-08T12:34:43;100845.00;;;12.30
11792;BMP180;5953;52.372;9.918;2024-03-08T12:37:12;100835.00;;;12.10
11792;BMP180;5953;52.372;9.918;2024-03-08T12:39:40;100843.00;;;12.00
11792;BMP180;5953;52.372;9.918;2024-03-08T12:42:12;100830.00;;;12.30
11792;BMP180;5953;52.372;9.918;2024-03-08T12:44:41;100836.00;;;12.10
11792;BMP180;5953;52.372;9.918;2024-03-08T12:47:09;100817.00;;;12.20
11792;BMP180;5953;52.372;9.918;2024-03-08T12:49:37;100806.00;;;12.20
11792;BMP180;5953;52.372;9.918;2024-03-08T12:52:09;100812.00;;;12.20
11792;BMP180;5953;52.372;9.918;2024-03-08T12:54:38;100807.00;;;12.30
11792;BMP180;5953;52.372;9.918;2024-03-08T12:57:06;100795.00;;;12.20
11792;BMP180;5953;52.372;9.918;2024-03-08T12:59:34;100797.00;;;12.00
11792;BMP180;5953;52.372;9.918;2024-03-08T13:02:03;100803.00;;;12.60
11792;BMP180;5953;52.372;9.918;2024-03-08T13:04:33;100807.00;;;12.40
11792;BMP180;5953;52.372;9.918;2024-03-08T13:07:01;100807.00;;;12.70
11792;BMP180;5953;52.372;9.918;2024-03-08T13:09:29;100799.00;;;12.50
11792;BMP180;5953;52.372;9.918;2024-03-08T13:11:58;100782.00;;;12.50
11792;BMP180;5953;52.372;9.918;2024-03-08T13:14:27;100775.00;;;12.40
11792;BMP180;5953;52.372;9.918;2024-03-08T13:16:58;100769.00;;;12.80
11792;BMP180;5953;52.372;9.918;2024-03-08T13:19:27;100766.00;;;12.70
11792;BMP180;5953;52.372;9.918;2024-03-08T13:21:55;100772.00;;;12.50
11792;BMP180;5953;52.372;9.918;2024-03-08T13:24:23;100763.00;;;12.40
11792;BMP180;5953;52.372;9.918;2024-03-08T13:26:51;100759.00;;;12.30
11792;BMP180;5953;52.372;9.918;2024-03-08T13:29:18;100756.00;;;12.40
11792;BMP180;5953;52.372;9.918;2024-03-08T13:31:47;100752.00;;;12.50
11792;BMP180;5953;52.372;9.918;2024-03-08T13:34:18;100760.00;;;12.40
11792;BMP180;5953;52.372;9.918;2024-03-08T13:36:55;100760.00;;;12.60
11792;BMP180;5953;52.372;9.918;2024-03-08T13:39:27;100746.00;;;12.20
11792;BMP180;5953;52.372;9.918;2024-03-08T13:41:55;100739.00;;;12.40
11792;BMP180;5953;52.372;9.918;2024-03-08T13:44:23;100757.00;;;12.50
11792;BMP180;5953;52.372;9.918;2024-03-08T13:46:52;100746.00;;;12.30
11792;BMP180;5953;52.372;9.918;2024-03-08T13:49:20;100749.00;;;12.60
11792;BMP180;5953;52.372;9.918;2024-03-08T13:51:48;100733.00;;;12.70
11792;BMP180;5953;52.372;9.918;2024-03-08T13:54:17;100741.00;;;12.70
11792;BMP180;5953;52.372;9.918;2024-03-08T13:56:45;100729.00;;;12.60
11792;BMP180;5953;52.372;9.918;2024-03-08T13:59:13;100723.00;;;12.90
11792;BMP180;5953;52.372;9.918;2024-03-08T14:01:40;100728.00;;;12.80
11792;BMP180;5953;52.372;9.918;2024-03-08T14:04:12;100726.00;;;12.70
11792;BMP180;5953;52.372;9.918;2024-03-08T14:06:43;100717.00;;;12.50
11792;BMP180;5953;52.372;9.918;2024-03-08T14:09:12;100716.00;;;12.80
11792;BMP180;5953;52.372;9.918;2024-03-08T14:11:44;100715.00;;;12.60
11792;BMP180;5953;52.372;9.918;2024-03-08T14:14:12;100704.00;;;12.70
11792;BMP180;5953;52.372;9.918;2024-03-08T14:16:40;100710.00;;;12.60
11792;BMP180;5953;52.372;9.918;2024-03-08T14:19:09;100702.00;;;13.00
11792;BMP180;5953;52.372;9.918;2024-03-08T14:21:37;100692.00;;;13.00
11792;BMP180;5953;52.372;9.918;2024-03-08T14:24:06;100689.00;;;13.00
11792;BMP180;5953;52.372;9.918;2024-03-08T14:26:34;100685.00;;;12.60
11792;BMP180;5953;52.372;9.918;2024-03-08T14:29:06;100692.00;;;13.00